createdAt,value
2019-04-07T00:01:49.032Z,93.00
2019-04-07T00:04:16.000Z,92.80
2019-04-07T00:06:42.930Z,93.10
2019-04-07T00:09:09.825Z,93.00
2019-04-07T00:11:36.773Z,93.10
2019-04-07T00:14:04.036Z,93.30
2019-04-07T00:16:30.947Z,93.30
2019-04-07T00:18:57.844Z,92.90
2019-04-07T00:21:24.520Z,93.30
2019-04-07T00:23:51.446Z,93.40
2019-04-07T00:26:18.381Z,93.50
2019-04-07T00:28:45.423Z,93.40
2019-04-07T00:31:12.690Z,93.40
2019-04-07T00:33:40.179Z,93.30
2019-04-07T00:36:06.533Z,93.20
2019-04-07T00:38:33.456Z,93.30
2019-04-07T00:41:00.384Z,93.20
2019-04-07T00:43:27.511Z,93.20
2019-04-07T00:45:54.216Z,93.50
2019-04-07T00:48:21.214Z,93.90
2019-04-07T00:50:48.206Z,94.00
2019-04-07T00:53:15.616Z,93.70
2019-04-07T00:55:42.481Z,93.60
2019-04-07T00:58:08.832Z,93.90
2019-04-07T01:00:35.821Z,94.20
2019-04-07T01:03:02.948Z,94.40
2019-04-07T01:05:36.734Z,93.80
2019-04-07T01:07:56.616Z,93.80
2019-04-07T01:10:24.188Z,93.70
2019-04-07T01:12:51.109Z,93.40
2019-04-07T01:15:17.644Z,93.70
2019-04-07T01:17:44.584Z,93.90
2019-04-07T01:20:11.573Z,93.40
2019-04-07T01:22:38.248Z,93.30
2019-04-07T01:25:05.208Z,93.00
2019-04-07T01:27:32.136Z,92.80
2019-04-07T01:29:59.452Z,93.40
2019-04-07T01:32:26.718Z,94.10
2019-04-07T01:34:53.627Z,94.20
2019-04-07T01:37:20.959Z,94.00
2019-04-07T01:39:47.746Z,94.50
2019-04-07T01:42:22.949Z,94.50
2019-04-07T01:45:14.727Z,94.50
2019-04-07T01:47:49.616Z,94.10
2019-04-07T01:50:23.177Z,94.30
2019-04-07T01:52:57.052Z,94.40
2019-04-07T01:55:43.964Z,94.20
2019-04-07T01:58:22.819Z,94.10
2019-04-07T02:01:09.373Z,93.60
2019-04-07T02:03:57.242Z,93.70
2019-04-07T02:06:32.066Z,93.70
2019-04-07T02:09:03.489Z,94.30
2019-04-07T02:11:54.055Z,94.60
2019-04-07T02:14:29.047Z,94.30
2019-04-07T02:17:14.821Z,94.10
2019-04-07T02:19:47.153Z,93.70
2019-04-07T02:22:25.591Z,93.60
2019-04-07T02:24:59.787Z,93.90
2019-04-07T02:27:34.864Z,93.40
2019-04-07T02:30:14.508Z,93.40
2019-04-07T02:33:00.717Z,93.50
2019-04-07T02:35:36.475Z,93.70
2019-04-07T02:38:14.951Z,94.10
2019-04-07T02:40:45.734Z,94.10
2019-04-07T02:43:17.859Z,94.30
2019-04-07T02:45:52.303Z,93.90
2019-04-07T02:48:32.288Z,94.00
2019-04-07T02:51:07.621Z,94.10
2019-04-07T02:53:41.015Z,94.00
2019-04-07T02:56:13.320Z,94.40
2019-04-07T02:58:47.924Z,94.80
2019-04-07T03:01:26.144Z,94.70
2019-04-07T03:04:08.215Z,94.60
2019-04-07T03:06:47.539Z,94.50
2019-04-07T03:09:18.761Z,94.50
2019-04-07T03:11:57.752Z,94.50
2019-04-07T03:14:31.366Z,94.60
2019-04-07T03:17:08.304Z,94.70
2019-04-07T03:19:41.404Z,94.70
2019-04-07T03:22:18.564Z,94.80
2019-04-07T03:24:51.654Z,94.00
2019-04-07T03:27:38.152Z,93.60
2019-04-07T03:30:17.546Z,93.90
2019-04-07T03:33:07.841Z,94.40
2019-04-07T03:35:38.389Z,94.90
2019-04-07T03:38:15.004Z,94.10
2019-04-07T03:40:46.976Z,93.60
2019-04-07T03:43:28.170Z,93.90
2019-04-07T03:46:01.263Z,94.00
2019-04-07T03:48:35.475Z,93.50
2019-04-07T03:51:08.947Z,93.40
2019-04-07T03:53:49.469Z,93.40
2019-04-07T03:56:37.351Z,93.30
2019-04-07T03:59:18.543Z,93.30
2019-04-07T04:01:54.839Z,93.80
2019-04-07T04:04:27.532Z,93.90
2019-04-07T04:06:57.954Z,94.00
2019-04-07T04:09:42.548Z,94.40
2019-04-07T04:12:17.112Z,94.20
2019-04-07T04:14:49.078Z,94.30
2019-04-07T04:17:16.464Z,93.80
2019-04-07T04:19:43.901Z,93.90
2019-04-07T04:22:09.860Z,93.90
2019-04-07T04:24:36.838Z,93.80
2019-04-07T04:27:04.584Z,93.90
2019-04-07T04:29:30.630Z,94.20
2019-04-07T04:31:57.548Z,94.20
2019-04-07T04:34:25.166Z,94.10
2019-04-07T04:36:51.929Z,94.20
2019-04-07T04:39:20.067Z,94.40
2019-04-07T04:41:45.465Z,94.60
2019-04-07T04:44:12.388Z,94.20
2019-04-07T04:46:39.324Z,93.80
2019-04-07T04:49:06.666Z,93.80
2019-04-07T04:51:36.990Z,94.20
2019-04-07T04:54:00.468Z,94.60
2019-04-07T04:56:27.025Z,94.10
2019-04-07T04:58:53.933Z,94.00
2019-04-07T05:01:20.847Z,94.10
2019-04-07T05:03:47.772Z,94.20
2019-04-07T05:06:14.698Z,93.80
2019-04-07T05:08:41.605Z,93.20
2019-04-07T05:11:09.136Z,93.30
2019-04-07T05:13:35.776Z,93.60
2019-04-07T05:16:02.696Z,94.10
2019-04-07T05:18:29.313Z,94.30
2019-04-07T05:20:56.355Z,94.00
2019-04-07T05:23:23.188Z,93.90
2019-04-07T05:25:50.426Z,93.80
2019-04-07T05:28:17.036Z,93.80
2019-04-07T05:30:44.433Z,94.10
2019-04-07T05:33:11.368Z,94.30
2019-04-07T05:35:39.639Z,94.50
2019-04-07T05:38:07.657Z,94.40
2019-04-07T05:40:33.512Z,94.00
2019-04-07T05:43:00.789Z,93.70
2019-04-07T05:45:27.921Z,93.90
2019-04-07T05:47:54.333Z,93.60
2019-04-07T05:50:21.207Z,93.30
2019-04-07T05:52:48.789Z,93.70
2019-04-07T05:55:15.193Z,93.50
2019-04-07T05:57:42.040Z,93.40
2019-04-07T06:00:14.205Z,93.20
2019-04-07T06:02:37.438Z,93.20
2019-04-07T06:05:04.145Z,93.30
2019-04-07T06:07:31.941Z,93.60
2019-04-07T06:09:57.859Z,93.30
2019-04-07T06:12:24.788Z,93.00
2019-04-07T06:14:51.910Z,93.10
2019-04-07T06:17:19.442Z,93.40
2019-04-07T06:19:45.999Z,93.00
2019-04-07T06:22:12.872Z,93.40
2019-04-07T06:24:40.536Z,93.30
2019-04-07T06:27:06.784Z,92.80
2019-04-07T06:29:34.413Z,92.60
2019-04-07T06:32:04.568Z,92.40
2019-04-07T06:34:28.130Z,92.20
2019-04-07T06:36:55.756Z,92.30
2019-04-07T06:39:21.815Z,92.20
2019-04-07T06:41:48.938Z,92.20
2019-04-07T06:44:19.436Z,92.60
2019-04-07T06:46:49.160Z,92.60
2019-04-07T06:49:22.934Z,92.50
2019-04-07T06:51:56.264Z,92.40
2019-04-07T06:54:35.889Z,92.60
2019-04-07T06:57:18.469Z,92.60
2019-04-07T06:59:50.444Z,92.10
2019-04-07T07:02:34.950Z,91.60
2019-04-07T07:05:08.434Z,91.00
2019-04-07T07:07:41.391Z,90.50
2019-04-07T07:10:26.122Z,89.80
2019-04-07T07:12:47.800Z,88.70
2019-04-07T07:15:23.415Z,87.90
2019-04-07T07:18:01.388Z,87.80
2019-04-07T07:20:42.957Z,87.30
2019-04-07T07:23:15.748Z,87.60
2019-04-07T07:25:42.053Z,88.10
2019-04-07T07:28:11.511Z,86.30
2019-04-07T07:30:35.962Z,85.70
2019-04-07T07:33:02.882Z,85.10
2019-04-07T07:35:29.729Z,85.10
2019-04-07T07:37:59.453Z,83.90
2019-04-07T07:40:24.246Z,82.20
2019-04-07T07:42:53.176Z,82.70
2019-04-07T07:45:18.695Z,83.10
2019-04-07T07:47:46.413Z,83.30
2019-04-07T07:50:12.153Z,82.50
2019-04-07T07:52:39.820Z,81.00
2019-04-07T07:55:05.914Z,80.50
2019-04-07T07:57:32.838Z,78.80
2019-04-07T08:00:00.407Z,79.50
2019-04-07T08:02:29.068Z,79.20
2019-04-07T08:04:57.330Z,79.30
2019-04-07T08:07:20.834Z,78.90
2019-04-07T08:09:48.038Z,77.20
2019-04-07T08:12:15.228Z,75.00
2019-04-07T08:14:41.624Z,75.10
2019-04-07T08:17:08.575Z,74.20
2019-04-07T08:19:36.276Z,73.20
2019-04-07T08:22:03.029Z,71.90
2019-04-07T08:24:29.377Z,73.00
2019-04-07T08:26:57.137Z,72.90
2019-04-07T08:29:23.260Z,71.50
2019-04-07T08:31:53.167Z,70.40
2019-04-07T08:34:17.822Z,69.00
2019-04-07T08:36:45.342Z,68.10
2019-04-07T08:39:21.202Z,67.60
2019-04-07T08:41:41.387Z,66.10
2019-04-07T08:44:08.105Z,65.10
2019-04-07T08:46:39.842Z,64.10
2019-04-07T08:49:01.692Z,64.10
2019-04-07T08:51:30.790Z,62.90
2019-04-07T08:53:55.450Z,61.80
2019-04-07T08:56:24.264Z,62.70
2019-04-07T08:58:49.325Z,61.30
2019-04-07T09:01:17.374Z,59.80
2019-04-07T09:03:45.407Z,58.90
2019-04-07T09:06:10.949Z,58.90
2019-04-07T09:08:38.196Z,58.00
2019-04-07T09:11:10.091Z,57.60
2019-04-07T09:13:37.196Z,58.00
2019-04-07T09:16:14.513Z,58.40
2019-04-07T09:19:03.770Z,59.50
2019-04-07T09:21:40.264Z,60.10
2019-04-07T09:24:14.964Z,59.60
2019-04-07T09:26:49.931Z,59.20
2019-04-07T09:29:29.226Z,59.00
2019-04-07T09:32:02.236Z,59.40
2019-04-07T09:34:52.924Z,59.60
2019-04-07T09:37:29.898Z,60.50
2019-04-07T09:40:05.733Z,60.00
2019-04-07T09:42:41.503Z,59.60
2019-04-07T09:45:32.378Z,59.50
2019-04-07T09:48:21.773Z,59.50
2019-04-07T09:51:05.090Z,57.60
2019-04-07T09:53:36.068Z,59.00
2019-04-07T09:56:11.715Z,59.20
2019-04-07T09:58:58.856Z,57.60
2019-04-07T10:01:36.864Z,57.40
2019-04-07T10:04:13.830Z,57.20
2019-04-07T10:07:03.696Z,57.10
2019-04-07T10:09:50.221Z,57.30
2019-04-07T10:12:32.113Z,55.80
2019-04-07T10:15:20.112Z,54.90
2019-04-07T10:17:54.402Z,55.20
2019-04-07T10:20:37.421Z,54.50
2019-04-07T10:23:18.739Z,54.60
2019-04-07T10:25:54.931Z,53.20
2019-04-07T10:28:42.781Z,53.10
2019-04-07T10:31:13.827Z,52.10
2019-04-07T10:34:05.033Z,51.60
2019-04-07T10:36:50.835Z,50.80
2019-04-07T10:39:24.056Z,49.40
2019-04-07T10:41:57.501Z,49.00
2019-04-07T10:44:34.048Z,47.50
2019-04-07T10:47:21.179Z,47.00
2019-04-07T10:50:11.122Z,46.80
2019-04-07T10:52:43.788Z,46.10
2019-04-07T10:55:20.736Z,46.40
2019-04-07T10:57:59.815Z,45.40
2019-04-07T11:00:45.477Z,44.40
2019-04-07T11:03:31.118Z,42.50
2019-04-07T11:06:07.238Z,43.00
2019-04-07T11:08:40.979Z,43.60
2019-04-07T11:11:16.475Z,43.90
2019-04-07T11:13:51.762Z,44.80
2019-04-07T11:16:39.544Z,45.70
2019-04-07T11:19:28.099Z,46.20
2019-04-07T11:21:58.855Z,46.20
2019-04-07T11:24:40.019Z,47.20
2019-04-07T11:27:14.799Z,47.50
2019-04-07T11:29:44.705Z,47.00
2019-04-07T11:32:32.331Z,47.90
2019-04-07T11:35:11.146Z,46.60
2019-04-07T11:37:45.794Z,46.30
2019-04-07T11:40:21.045Z,45.30
2019-04-07T11:43:02.216Z,44.80
2019-04-07T11:45:34.803Z,44.80
2019-04-07T11:48:12.122Z,44.00
2019-04-07T11:50:48.877Z,42.40
2019-04-07T11:53:27.904Z,41.50
2019-04-07T11:56:06.964Z,41.20
2019-04-07T11:58:39.927Z,41.40
2019-04-07T12:01:28.131Z,43.30
2019-04-07T12:04:05.706Z,43.00
2019-04-07T12:06:40.597Z,43.70
2019-04-07T12:09:22.224Z,43.30
2019-04-07T12:12:08.065Z,43.20
2019-04-07T12:14:45.468Z,43.90
2019-04-07T12:17:22.462Z,43.00
2019-04-07T12:19:56.848Z,43.30
2019-04-07T12:22:44.747Z,43.20
2019-04-07T12:25:16.986Z,43.50
2019-04-07T12:28:03.832Z,43.60
2019-04-07T12:30:40.481Z,43.80
2019-04-07T12:33:15.484Z,43.50
2019-04-07T12:36:03.254Z,44.00
2019-04-07T12:38:43.267Z,44.80
2019-04-07T12:41:27.710Z,44.50
2019-04-07T12:44:01.646Z,44.70
2019-04-07T12:46:44.244Z,44.00
2019-04-07T12:49:24.252Z,44.00
2019-04-07T12:52:09.745Z,44.10
2019-04-07T12:54:59.368Z,45.00
2019-04-07T12:57:36.818Z,44.20
2019-04-07T13:00:09.165Z,44.80
2019-04-07T13:02:54.357Z,44.80
2019-04-07T13:05:28.558Z,44.40
2019-04-07T13:08:09.116Z,45.30
2019-04-07T13:10:52.279Z,46.50
2019-04-07T13:13:33.881Z,45.40
2019-04-07T13:16:23.678Z,47.10
2019-04-07T13:18:58.920Z,46.70
2019-04-07T13:21:32.613Z,47.40
2019-04-07T13:24:12.675Z,48.00
2019-04-07T13:26:43.493Z,47.70
2019-04-07T13:29:19.340Z,47.20
2019-04-07T13:32:06.153Z,47.70
2019-04-07T13:34:45.513Z,48.70
2019-04-07T13:37:20.008Z,48.20
2019-04-07T13:39:55.532Z,47.70
2019-04-07T13:42:43.293Z,47.70
2019-04-07T13:45:26.952Z,48.70
2019-04-07T13:48:06.579Z,48.60
2019-04-07T13:50:49.196Z,48.80
2019-04-07T13:53:25.062Z,48.50
2019-04-07T13:56:00.708Z,49.10
2019-04-07T13:58:39.997Z,50.00
2019-04-07T14:01:18.001Z,50.90
2019-04-07T14:03:58.010Z,50.70
2019-04-07T14:06:32.874Z,50.30
2019-04-07T14:09:17.034Z,50.20
2019-04-07T14:12:00.110Z,50.40
2019-04-07T14:14:30.294Z,50.20
2019-04-07T14:17:02.824Z,49.80
2019-04-07T14:19:37.071Z,50.70
2019-04-07T14:22:11.133Z,50.20
2019-04-07T14:24:47.142Z,50.10
2019-04-07T14:27:22.088Z,49.90
2019-04-07T14:29:54.850Z,50.60
2019-04-07T14:32:27.383Z,50.70
2019-04-07T14:35:14.045Z,51.50
2019-04-07T14:37:47.350Z,51.60
2019-04-07T14:40:21.404Z,50.20
2019-04-07T14:43:12.463Z,48.50
2019-04-07T14:45:47.889Z,47.90
2019-04-07T14:48:22.484Z,48.40
2019-04-07T14:51:01.949Z,48.00
2019-04-07T14:53:42.071Z,48.30
2019-04-07T14:56:35.751Z,48.40
2019-04-07T14:59:23.949Z,48.70
2019-04-07T15:01:53.642Z,49.10
2019-04-07T15:04:20.406Z,48.60
2019-04-07T15:06:50.318Z,49.50
2019-04-07T15:09:24.038Z,49.20
2019-04-07T15:11:57.698Z,49.70
2019-04-07T15:14:24.177Z,49.90
2019-04-07T15:16:51.343Z,49.50
2019-04-07T15:19:18.034Z,48.60
2019-04-07T15:21:45.251Z,49.00
2019-04-07T15:24:11.922Z,48.70
2019-04-07T15:26:40.041Z,48.20
2019-04-07T15:29:09.298Z,49.50
2019-04-07T15:31:33.144Z,50.30
2019-04-07T15:34:00.938Z,49.60
2019-04-07T15:36:28.210Z,49.70
2019-04-07T15:38:55.946Z,49.40
2019-04-07T15:41:22.288Z,49.50
2019-04-07T15:43:49.980Z,49.30
2019-04-07T15:46:19.568Z,49.50
2019-04-07T15:48:46.567Z,50.10
2019-04-07T15:51:14.493Z,49.90
2019-04-07T15:53:44.643Z,50.30
2019-04-07T15:56:16.165Z,50.60
2019-04-07T15:58:41.949Z,51.10
2019-04-07T16:01:09.420Z,50.40
2019-04-07T16:03:36.770Z,50.30
2019-04-07T16:06:04.626Z,51.20
2019-04-07T16:08:32.408Z,50.70
2019-04-07T16:10:59.546Z,51.20
2019-04-07T16:13:29.241Z,51.20
2019-04-07T16:16:00.382Z,50.90
2019-04-07T16:18:27.297Z,51.10
2019-04-07T16:20:54.267Z,51.30
2019-04-07T16:23:22.100Z,51.10
2019-04-07T16:25:48.143Z,51.50
2019-04-07T16:28:16.114Z,51.50
2019-04-07T16:30:42.658Z,51.90
2019-04-07T16:33:09.881Z,51.80
2019-04-07T16:35:36.544Z,52.10
2019-04-07T16:38:03.889Z,52.30
2019-04-07T16:40:31.691Z,51.60
2019-04-07T16:43:07.683Z,52.00
2019-04-07T16:45:25.466Z,52.50
2019-04-07T16:47:56.437Z,53.00
2019-04-07T16:50:22.975Z,52.70
2019-04-07T16:52:49.950Z,53.90
2019-04-07T16:55:35.222Z,54.30
2019-04-07T16:58:03.209Z,54.20
2019-04-07T17:00:34.466Z,55.30
2019-04-07T17:03:02.374Z,54.20
2019-04-07T17:05:33.297Z,54.90
2019-04-07T17:07:59.547Z,55.60
2019-04-07T17:10:31.567Z,54.80
2019-04-07T17:12:56.586Z,55.80
2019-04-07T17:15:23.439Z,54.90
2019-04-07T17:17:53.376Z,55.50
2019-04-07T17:20:19.033Z,55.70
2019-04-07T17:22:48.101Z,55.90
2019-04-07T17:25:14.157Z,55.40
2019-04-07T17:27:42.558Z,56.00
2019-04-07T17:30:11.808Z,56.90
2019-04-07T17:32:40.330Z,56.60
2019-04-07T17:35:06.179Z,56.40
2019-04-07T17:37:33.124Z,56.70
2019-04-07T17:40:11.326Z,57.40
2019-04-07T17:42:33.891Z,57.80
2019-04-07T17:45:07.554Z,58.20
2019-04-07T17:47:43.965Z,58.70
2019-04-07T17:50:31.001Z,58.70
2019-04-07T17:53:16.137Z,58.90
2019-04-07T17:55:57.235Z,59.60
2019-04-07T17:58:36.719Z,59.60
2019-04-07T18:01:06.300Z,60.60
2019-04-07T18:03:47.106Z,61.20
2019-04-07T18:06:25.080Z,62.40
2019-04-07T18:09:07.906Z,61.60
2019-04-07T18:11:39.226Z,61.50
2019-04-07T18:14:28.349Z,62.00
2019-04-07T18:17:17.191Z,60.80
2019-04-07T18:19:50.600Z,60.50
2019-04-07T18:22:29.689Z,60.80
2019-04-07T18:25:03.552Z,61.00
2019-04-07T18:27:34.133Z,61.40
2019-04-07T18:30:20.563Z,61.80
2019-04-07T18:33:09.842Z,61.50
2019-04-07T18:35:45.260Z,61.30
2019-04-07T18:38:29.811Z,60.70
2019-04-07T18:41:21.875Z,60.70
2019-04-07T18:44:02.469Z,60.50
2019-04-07T18:46:27.959Z,62.50
2019-04-07T18:49:15.812Z,69.00
2019-04-07T18:51:55.794Z,72.60
2019-04-07T18:54:38.894Z,71.70
2019-04-07T18:57:15.286Z,74.30
2019-04-07T19:00:00.978Z,73.80
2019-04-07T19:02:31.727Z,75.40
2019-04-07T19:05:09.057Z,76.10
2019-04-07T19:07:57.231Z,77.30
2019-04-07T19:10:41.311Z,78.10
2019-04-07T19:13:24.550Z,79.00
2019-04-07T19:16:04.708Z,78.00
2019-04-07T19:18:44.095Z,79.10
2019-04-07T19:21:26.774Z,78.90
2019-04-07T19:24:08.013Z,79.50
2019-04-07T19:26:42.815Z,81.20
2019-04-07T19:29:25.059Z,80.00
2019-04-07T19:32:00.155Z,80.10
2019-04-07T19:34:39.766Z,80.60
2019-04-07T19:37:17.260Z,81.30
2019-04-07T19:40:04.285Z,81.50
2019-04-07T19:42:43.683Z,81.80
2019-04-07T19:45:17.560Z,81.20
2019-04-07T19:48:06.422Z,82.20
2019-04-07T19:50:40.581Z,80.10
2019-04-07T19:53:18.118Z,80.80
2019-04-07T19:55:59.514Z,81.30
2019-04-07T19:58:36.063Z,81.60
2019-04-07T20:01:17.024Z,80.40
2019-04-07T20:03:49.560Z,81.40
2019-04-07T20:06:36.568Z,81.90
2019-04-07T20:09:14.971Z,82.80
2019-04-07T20:12:00.563Z,82.40
2019-04-07T20:14:44.976Z,83.20
2019-04-07T20:17:20.989Z,82.50
2019-04-07T20:20:04.337Z,81.70
2019-04-07T20:22:56.905Z,83.70
2019-04-07T20:25:35.491Z,82.50
2019-04-07T20:28:07.656Z,82.50
2019-04-07T20:30:40.452Z,83.70
2019-04-07T20:33:13.224Z,82.60
2019-04-07T20:35:50.721Z,82.20
2019-04-07T20:38:30.003Z,83.40
2019-04-07T20:41:05.294Z,83.00
2019-04-07T20:43:38.391Z,82.70
2019-04-07T20:46:14.052Z,82.10
2019-04-07T20:49:02.763Z,83.20
2019-04-07T20:51:45.387Z,82.20
2019-04-07T20:54:19.660Z,83.20
2019-04-07T20:56:55.377Z,81.90
2019-04-07T20:59:47.053Z,81.70
2019-04-07T21:02:27.121Z,82.20
2019-04-07T21:05:15.249Z,83.60
2019-04-07T21:07:52.911Z,81.40
2019-04-07T21:10:42.684Z,82.50
2019-04-07T21:13:18.417Z,84.10
2019-04-07T21:15:55.860Z,83.10
2019-04-07T21:18:32.708Z,83.40
2019-04-07T21:21:10.329Z,82.70
2019-04-07T21:23:57.281Z,83.30
2019-04-07T21:26:29.786Z,83.10
2019-04-07T21:29:01.183Z,83.10
2019-04-07T21:31:34.468Z,83.70
2019-04-07T21:34:16.509Z,83.50
2019-04-07T21:36:50.568Z,83.10
2019-04-07T21:39:25.922Z,81.80
2019-04-07T21:42:10.403Z,83.20
2019-04-07T21:45:02.405Z,82.80
2019-04-07T21:47:36.597Z,83.10
2019-04-07T21:50:11.963Z,83.50
2019-04-07T21:52:52.919Z,84.00
2019-04-07T21:55:23.508Z,84.40
2019-04-07T21:58:12.868Z,84.10
2019-04-07T22:01:02.846Z,84.70
2019-04-07T22:03:41.001Z,83.50
2019-04-07T22:06:19.756Z,83.20
2019-04-07T22:08:51.896Z,83.10
2019-04-07T22:11:22.507Z,81.20
2019-04-07T22:13:45.272Z,81.40
2019-04-07T22:16:12.304Z,81.80
2019-04-07T22:18:39.443Z,81.20
2019-04-07T22:21:06.156Z,81.00
2019-04-07T22:23:33.776Z,81.20
2019-04-07T22:26:00.108Z,80.70
2019-04-07T22:28:28.512Z,80.20
2019-04-07T22:30:55.005Z,80.80
2019-04-07T22:33:25.307Z,80.80
2019-04-07T22:35:49.059Z,81.10
2019-04-07T22:38:15.094Z,80.40
2019-04-07T22:40:42.024Z,81.30
2019-04-07T22:43:09.305Z,81.40
2019-04-07T22:45:35.911Z,82.30
2019-04-07T22:48:03.498Z,82.20
2019-04-07T22:50:30.535Z,83.00
2019-04-07T22:52:57.472Z,83.40
2019-04-07T22:55:27.038Z,82.60
2019-04-07T22:57:53.731Z,81.50
2019-04-07T23:00:23.281Z,81.80
2019-04-07T23:02:49.404Z,81.70
2019-04-07T23:05:16.984Z,81.50
2019-04-07T23:07:43.798Z,81.80
2019-04-07T23:10:11.033Z,81.60
2019-04-07T23:12:38.174Z,81.30
2019-04-07T23:15:05.649Z,81.10
2019-04-07T23:17:32.237Z,81.20
2019-04-07T23:19:58.921Z,81.10
2019-04-07T23:22:25.743Z,81.00
2019-04-07T23:24:53.052Z,81.20
2019-04-07T23:27:20.076Z,80.90
2019-04-07T23:29:46.598Z,81.20
2019-04-07T23:32:13.536Z,81.80
2019-04-07T23:34:41.476Z,81.90
2019-04-07T23:37:08.158Z,82.00
2019-04-07T23:39:34.364Z,82.20
2019-04-07T23:42:01.312Z,83.90
2019-04-07T23:44:28.273Z,85.70
2019-04-07T23:46:55.197Z,86.20
2019-04-07T23:49:22.559Z,86.60
2019-04-07T23:51:49.123Z,86.90
2019-04-07T23:54:16.450Z,87.10
2019-04-07T23:56:43.713Z,86.80
2019-04-07T23:59:10.515Z,86.50
